الصفحة الرئيسية
METAR-TAF:

METAR-TAF

مطار :

بروناي, بروناي

دائرة عرض: 04-56N, خط طول: 114-56E, ارتفاع: 22 متر

مراقبة الطقس الحالي

تاريخ ووقت الإصدار 37 دقيقة قبل الساعة 14:00UTC
ريح 2 عقدة من الشرق/الجنوب الشرقي
درجة الحرارة 28°درجة مئوية
الرطوبة 84%
ضغط 1011 hPa
الرؤية 10 كم أو أكثر
غيوم قليلة على ارتفاع 1500 قدم
غيوم متفرقة على ارتفاع 14000 قدم
غيوم مفككة على ارتفاع 28000 قدم

METAR: WBSB 241400Z 11002KT 9999 FEW015 SCT140 BKN280 28/25 Q1011 NOSIG

زمن: 22:37 (14:37 UTC)

توقعات

تاريخ ووقت الإصدار 3ساعات و 47 دقيقة قبل الساعة 10:50UTC
التوقعات صالحة من24 الساعة 12 UTC إلى 25 الساعة 18 UTC
ريح 3 عقدة من الجنوب/الجنوب الغربي
الرؤية 10 كم أو أكثر
غيوم متفرقة على ارتفاع 1500 قدم
غيوم قليلة على ارتفاع 1600 قدم, مزنة ركامية.
مؤقت
من 24 الساعة 14 UTC إلى 24 الساعة 16 UTC
الرؤية: 7000 متر
زخات من المطر
أصبح
من 25 الساعة 02 UTC إلى 25 الساعة 04 UTC
ريح 10 عقدة من الغرب
غيوم متفرقة على ارتفاع 1600 قدم
غيوم قليلة على ارتفاع 1700 قدم, مزنة ركامية.

TAF: WBSB 241050Z 2412/2518 20003KT 9999 SCT015 FEW016CB TEMPO 2414/2416 7000 SHRA BECMG 2502/2504 26010KT SCT016 FEW017CB

أرصاد الطقس والتوقعات من أكثر من 4000 مطار (تقارير الطقس للمطار METAR والتنبؤ بالطقس بالمطارTAF).

المحطات المتاحة هي النقط الصفراء والحمراء على الخريطة.

حرك المؤشر فوق النقطة لمعرفة اسم المحطة.

ثم انقر لمعرفة أرصاد وتوقعات الطقس.

لتغيير الخارطة: اضغط على الأزرار الخضراء مع رمز الصليب الأسود للتكبير. على الزر الأخضر مع شرطة للتصغير، أو على الأسهم الخضراء للخرائط المجاورة.


METAR-TAF: